Time;durP1;ratioP1;P1;durP2;ratioP2;P2;SDS_P1;SDS_P2;PMS_P1;PMS_P2;Temp;Humidity;BMP_temperature;BMP_pressure;BME280_temperature;BME280_humidity;BME280_pressure;Samples;Min_cycle;Max_cycle;Signal;HPM_P1;HPM_P2
2023/03/15 00:00:06;;;;;;;;;;;;;;;3.22;100.00;96128.41;5068550;28;19976;-69
2023/03/15 00:02:31;;;;;;;;;;;;;;;3.24;100.00;96129.66;5075141;28;19916;-72
2023/03/15 00:04:57;;;;;;;;;;;;;;;3.23;100.00;96144.31;5046393;28;19931;-77
2023/03/15 00:07:24;;;;;;;;;;;;;;;3.15;100.00;96152.50;5058831;28;20120;-74
2023/03/15 00:09:50;;;;;;;;;;;;;;;3.09;100.00;96165.44;5063299;28;19920;-77
2023/03/15 00:12:15;;;;;;;;;;;;;;;2.92;100.00;96160.97;5058969;28;19931;-77
2023/03/15 00:14:41;;;;;;;;;;;;;;;2.65;100.00;96154.97;5063399;28;19916;-74
2023/03/15 00:17:06;;;;;;;;;;;;;;;2.70;100.00;96162.06;5040048;28;19970;-73
2023/03/15 00:19:31;;;;;;;;;;;;;;;2.74;100.00;96162.22;5075763;28;19916;-73
2023/03/15 00:21:56;;;;;;;;;;;;;;;2.71;100.00;96160.19;5064784;28;19916;-75
2023/03/15 00:24:22;;;;;;;;;;;;;;;2.76;100.00;96160.00;5068829;28;19928;-75
2023/03/15 00:26:47;;;;;;;;;;;;;;;2.73;100.00;96168.75;5062776;28;20397;-74
2023/03/15 00:29:12;;;;;;;;;;;;;;;2.84;100.00;96183.47;5058211;28;19916;-75
2023/03/15 00:31:37;;;;;;;;;;;;;;;2.74;100.00;96178.44;5063123;28;19917;-76
2023/03/15 00:34:03;;;;;;;;;;;;;;;2.76;100.00;96187.81;5060742;28;19923;-69
2023/03/15 00:36:28;;;;;;;;;;;;;;;2.62;100.00;96182.66;5061473;28;19920;-74
2023/03/15 00:38:54;;;;;;;;;;;;;;;2.60;100.00;96184.88;5045590;28;19935;-74
2023/03/15 00:41:20;;;;;;;;;;;;;;;2.64;100.00;96191.22;5057688;28;19970;-74
2023/03/15 00:43:47;;;;;;;;;;;;;;;2.53;100.00;96189.25;5063478;28;20313;-72
2023/03/15 00:46:13;;;;;;;;;;;;;;;2.49;100.00;96210.72;5060046;28;19916;-74
2023/03/15 00:48:38;;;;;;;;;;;;;;;2.51;100.00;96200.38;5062415;28;19962;-75
2023/03/15 00:51:11;;;;;;;;;;;;;;;2.54;100.00;96202.44;5059769;28;19916;-70
2023/03/15 00:53:38;;;;;;;;;;;;;;;2.51;100.00;96203.06;5062817;28;20333;-73
2023/03/15 00:56:05;;;;;;;;;;;;;;;2.46;100.00;96208.66;5059051;28;19923;-69
2023/03/15 00:58:30;;;;;;;;;;;;;;;2.51;100.00;96219.28;5063919;28;19926;-73
2023/03/15 01:00:55;;;;;;;;;;;;;;;2.49;100.00;96230.44;5065353;28;19975;-74
2023/03/15 01:03:21;;;;;;;;;;;;;;;2.43;100.00;96222.81;5061199;28;20342;-75
2023/03/15 01:05:46;;;;;;;;;;;;;;;2.40;100.00;96247.81;5064621;28;19927;-72
2023/03/15 01:08:11;;;;;;;;;;;;;;;2.36;100.00;96244.16;5040152;28;19923;-74
2023/03/15 01:10:37;;;;;;;;;;;;;;;2.30;100.00;96246.25;5043739;28;19916;-75
2023/03/15 01:13:02;;;;;;;;;;;;;;;2.34;100.00;96265.31;5043236;28;20354;-70
2023/03/15 01:15:27;;;;;;;;;;;;;;;2.35;100.00;96273.09;5060741;28;19917;-73
2023/03/15 01:17:54;;;;;;;;;;;;;;;2.36;100.00;96282.81;5063901;28;19917;-74
2023/03/15 01:20:19;;;;;;;;;;;;;;;2.53;100.00;96281.94;5040357;28;20370;-74
2023/03/15 01:22:45;;;;;;;;;;;;;;;2.50;100.00;96290.69;5062955;28;19927;-73
2023/03/15 01:25:10;;;;;;;;;;;;;;;2.55;100.00;96303.25;5056845;28;19920;-74
2023/03/15 01:27:35;;;;;;;;;;;;;;;2.71;100.00;96304.28;5060238;28;19923;-73
2023/03/15 01:30:01;;;;;;;;;;;;;;;2.81;100.00;96308.53;5044273;28;19920;-73
2023/03/15 01:32:26;;;;;;;;;;;;;;;2.77;100.00;96316.50;5055832;28;19920;-74
2023/03/15 01:34:52;;;;;;;;;;;;;;;2.72;100.00;96324.00;5062239;28;19977;-73
2023/03/15 01:37:17;;;;;;;;;;;;;;;2.67;100.00;96341.22;5057061;28;19920;-72
2023/03/15 01:39:42;;;;;;;;;;;;;;;2.81;100.00;96351.78;5073284;28;19917;-73
2023/03/15 01:42:09;;;;;;;;;;;;;;;2.79;100.00;96362.97;5072820;28;19924;-73
2023/03/15 01:44:48;;;;;;;;;;;;;;;2.81;100.00;96381.56;5076260;28;19944;-74
2023/03/15 01:47:13;;;;;;;;;;;;;;;2.71;100.00;96382.72;5069155;28;19923;-73
2023/03/15 01:49:39;;;;;;;;;;;;;;;2.77;100.00;96389.53;5072222;28;19917;-76
2023/03/15 01:52:08;;;;;;;;;;;;;;;2.63;100.00;96394.38;5066923;28;20008;-70
2023/03/15 01:54:41;;;;;;;;;;;;;;;2.68;100.00;96400.38;5067201;28;20393;-73
2023/03/15 01:57:12;;;;;;;;;;;;;;;2.65;100.00;96408.34;5066643;28;19972;-76
2023/03/15 02:00:10;;;;;;;;;;;;;;;2.59;100.00;96417.72;5076577;28;19947;-75
2023/03/15 02:02:38;;;;;;;;;;;;;;;2.56;100.00;96426.50;5016791;28;19955;-73
2023/03/15 02:05:10;;;;;;;;;;;;;;;2.48;100.00;96426.19;5074249;28;20397;-72
2023/03/15 02:07:40;;;;;;;;;;;;;;;2.36;100.00;96425.25;5079456;28;19905;-72
2023/03/15 02:10:07;;;;;;;;;;;;;;;2.39;100.00;96427.31;5084086;28;19916;-69
2023/03/15 02:12:33;;;;;;;;;;;;;;;2.36;100.00;96438.75;5085847;28;19905;-73
2023/03/15 02:15:00;;;;;;;;;;;;;;;2.29;100.00;96439.25;5086452;28;19909;-72
2023/03/15 02:17:34;;;;;;;;;;;;;;;2.26;100.00;96450.69;5056292;28;20745;-74
2023/03/15 02:19:59;;;;;;;;;;;;;;;2.07;100.00;96464.50;5063895;28;19987;-75
2023/03/15 02:22:39;;;;;;;;;;;;;;;2.15;100.00;96469.13;5060489;28;19956;-73
2023/03/15 02:25:07;;;;;;;;;;;;;;;2.07;100.00;96462.63;5061948;28;20013;-72
2023/03/15 02:27:34;;;;;;;;;;;;;;;1.97;100.00;96460.22;5071327;28;19984;-73
2023/03/15 02:30:02;;;;;;;;;;;;;;;2.13;100.00;96457.84;5074524;28;20027;-74
2023/03/15 02:32:27;;;;;;;;;;;;;;;2.03;100.00;96460.84;5065439;28;19923;-71
2023/03/15 02:34:52;;;;;;;;;;;;;;;2.04;100.00;96468.66;5089500;28;19904;-73
2023/03/15 02:37:18;;;;;;;;;;;;;;;2.05;100.00;96469.44;5067802;28;19977;-73
2023/03/15 02:39:43;;;;;;;;;;;;;;;2.04;100.00;96474.06;5050618;28;19917;-75
2023/03/15 02:42:09;;;;;;;;;;;;;;;1.99;100.00;96478.81;5078460;28;20336;-69
2023/03/15 02:44:36;;;;;;;;;;;;;;;2.01;100.00;96473.88;5068433;28;19928;-72
2023/03/15 02:47:25;;;;;;;;;;;;;;;1.88;100.00;96489.13;5069039;28;19992;-70
2023/03/15 02:49:52;;;;;;;;;;;;;;;1.85;100.00;96487.84;5068301;28;19924;-72
2023/03/15 02:52:18;;;;;;;;;;;;;;;1.85;100.00;96503.25;5069226;28;20293;-76
2023/03/15 02:54:43;;;;;;;;;;;;;;;1.72;100.00;96503.06;5066661;28;19921;-75
2023/03/15 02:57:09;;;;;;;;;;;;;;;1.67;100.00;96505.13;5060267;28;19923;-71
2023/03/15 02:59:35;;;;;;;;;;;;;;;1.55;100.00;96513.84;5047893;28;20411;-77
2023/03/15 03:02:00;;;;;;;;;;;;;;;1.44;100.00;96504.41;5050053;28;19924;-74
2023/03/15 03:04:26;;;;;;;;;;;;;;;1.38;100.00;96516.47;5061005;28;19932;-78
2023/03/15 03:06:51;;;;;;;;;;;;;;;1.25;100.00;96528.94;5065990;28;19927;-75
2023/03/15 03:09:16;;;;;;;;;;;;;;;1.19;100.00;96525.59;5043904;28;20310;-75
2023/03/15 03:11:42;;;;;;;;;;;;;;;1.18;100.00;96526.69;5067212;28;19921;-76
2023/03/15 03:14:07;;;;;;;;;;;;;;;1.27;100.00;96540.22;5062960;28;19921;-74
2023/03/15 03:16:32;;;;;;;;;;;;;;;1.20;100.00;96539.88;5068303;28;19954;-75
2023/03/15 03:18:58;;;;;;;;;;;;;;;1.16;100.00;96544.28;5067650;28;19923;-73
2023/03/15 03:21:23;;;;;;;;;;;;;;;0.97;100.00;96541.78;5062003;28;20124;-73
2023/03/15 03:23:48;;;;;;;;;;;;;;;0.72;100.00;96546.69;5048731;28;20357;-74
2023/03/15 03:26:15;;;;;;;;;;;;;;;0.51;100.00;96554.50;5061124;28;19923;-74
2023/03/15 03:28:41;;;;;;;;;;;;;;;0.47;100.00;96553.47;5066077;28;20369;-74
2023/03/15 03:31:14;;;;;;;;;;;;;;;0.59;100.00;96561.81;5061757;28;19925;-73
2023/03/15 03:33:39;;;;;;;;;;;;;;;0.51;100.00;96560.66;5064407;28;19962;-73
2023/03/15 03:36:04;;;;;;;;;;;;;;;0.48;100.00;96563.97;5061566;28;20339;-70
2023/03/15 03:38:30;;;;;;;;;;;;;;;0.50;100.00;96566.34;5067781;28;19930;-72
2023/03/15 03:40:55;;;;;;;;;;;;;;;0.42;100.00;96569.78;5066272;28;19927;-74
2023/03/15 03:43:20;;;;;;;;;;;;;;;0.29;100.00;96583.00;5041981;28;19967;-73
2023/03/15 03:45:45;;;;;;;;;;;;;;;0.18;100.00;96581.59;5064940;28;19920;-73
2023/03/15 03:48:11;;;;;;;;;;;;;;;0.04;100.00;96584.31;5060294;28;19917;-74
2023/03/15 03:50:36;;;;;;;;;;;;;;;-0.12;100.00;96581.16;5045017;28;19960;-74
2023/03/15 03:53:01;;;;;;;;;;;;;;;-0.17;100.00;96585.84;5066413;28;20396;-74
2023/03/15 03:55:27;;;;;;;;;;;;;;;-0.16;100.00;96590.09;5060802;28;19916;-72
2023/03/15 03:57:57;;;;;;;;;;;;;;;-0.24;100.00;96599.69;5065764;28;20426;-74
2023/03/15 04:00:23;;;;;;;;;;;;;;;-0.31;100.00;96588.53;5063201;28;20388;-72
2023/03/15 04:02:48;;;;;;;;;;;;;;;-0.33;100.00;96593.41;5069029;28;20058;-75
2023/03/15 04:05:13;;;;;;;;;;;;;;;-0.15;100.00;96600.59;5062767;28;19967;-73
2023/03/15 04:07:38;;;;;;;;;;;;;;;-0.07;100.00;96596.41;5055534;28;20378;-71
2023/03/15 04:10:04;;;;;;;;;;;;;;;-0.11;100.00;96615.06;5069783;28;19920;-69
2023/03/15 04:12:31;;;;;;;;;;;;;;;-0.23;100.00;96615.53;5054053;28;19966;-71
2023/03/15 04:14:56;;;;;;;;;;;;;;;-0.42;100.00;96614.81;5074131;28;19916;-73
2023/03/15 04:17:24;;;;;;;;;;;;;;;-0.32;100.00;96619.25;5066519;28;20385;-74
2023/03/15 04:19:50;;;;;;;;;;;;;;;-0.34;100.00;96624.09;5052965;28;19920;-75
2023/03/15 04:22:16;;;;;;;;;;;;;;;-0.33;100.00;96629.19;5065705;28;19928;-75
2023/03/15 04:24:43;;;;;;;;;;;;;;;-0.37;100.00;96622.81;5076555;28;19948;-74
2023/03/15 04:27:08;;;;;;;;;;;;;;;-0.46;100.00;96625.38;5069171;28;19923;-74
2023/03/15 04:29:33;;;;;;;;;;;;;;;-0.50;100.00;96631.66;5074163;28;19916;-72
2023/03/15 04:32:00;;;;;;;;;;;;;;;-0.54;100.00;96631.47;5073782;28;19979;-71
2023/03/15 04:34:29;;;;;;;;;;;;;;;-0.46;100.00;96633.47;5052068;28;19959;-74
2023/03/15 04:36:54;;;;;;;;;;;;;;;-0.57;100.00;96633.94;5057350;28;19923;-73
2023/03/15 04:39:20;;;;;;;;;;;;;;;-0.71;100.00;96642.78;5077874;28;20351;-72
2023/03/15 04:41:45;;;;;;;;;;;;;;;-0.69;100.00;96645.16;5086602;28;20036;-73
2023/03/15 04:44:10;;;;;;;;;;;;;;;-0.86;100.00;96645.72;5082092;28;19921;-70
2023/03/15 04:46:36;;;;;;;;;;;;;;;-1.07;100.00;96654.09;5084913;28;19930;-73
2023/03/15 04:49:03;;;;;;;;;;;;;;;-1.23;100.00;96656.22;5083453;28;19921;-71
2023/03/15 04:51:29;;;;;;;;;;;;;;;-1.38;100.00;96665.31;5048827;28;19932;-71
2023/03/15 04:53:54;;;;;;;;;;;;;;;-1.44;100.00;96665.66;5081264;28;19925;-72
2023/03/15 04:56:20;;;;;;;;;;;;;;;-1.49;100.00;96671.91;5063178;28;19936;-72
2023/03/15 04:58:45;;;;;;;;;;;;;;;-1.54;100.00;96669.28;5068193;28;19920;-74
2023/03/15 05:01:11;;;;;;;;;;;;;;;-1.55;100.00;96668.50;5062645;28;19916;-73
2023/03/15 05:03:36;;;;;;;;;;;;;;;-1.58;100.00;96681.69;5048994;28;19917;-74
2023/03/15 05:06:06;;;;;;;;;;;;;;;-1.60;100.00;96681.19;5046390;28;19968;-71
2023/03/15 05:08:35;;;;;;;;;;;;;;;-1.59;100.00;96688.16;5060967;28;19939;-74
2023/03/15 05:11:01;;;;;;;;;;;;;;;-1.47;100.00;96685.84;5046430;28;20389;-73
2023/03/15 05:13:26;;;;;;;;;;;;;;;-1.42;100.00;96688.47;5050612;28;19920;-75
2023/03/15 05:15:51;;;;;;;;;;;;;;;-1.61;100.00;96690.31;5060358;28;19917;-72
2023/03/15 05:18:17;;;;;;;;;;;;;;;-1.73;100.00;96690.72;5060166;28;19923;-74
2023/03/15 05:20:42;;;;;;;;;;;;;;;-1.81;100.00;96699.44;5062215;28;20321;-73
2023/03/15 05:23:07;;;;;;;;;;;;;;;-1.85;100.00;96703.78;5057119;28;19931;-73
2023/03/15 05:25:32;;;;;;;;;;;;;;;-1.94;100.00;96707.09;5062069;28;19956;-73
2023/03/15 05:27:58;;;;;;;;;;;;;;;-1.97;100.00;96704.97;5062221;28;20018;-70
2023/03/15 05:30:23;;;;;;;;;;;;;;;-1.85;100.00;96712.63;5038364;28;20373;-72
2023/03/15 05:32:48;;;;;;;;;;;;;;;-1.64;100.00;96717.75;5061650;28;19958;-74
2023/03/15 05:35:14;;;;;;;;;;;;;;;-1.49;100.00;96724.84;5040323;28;20007;-75
2023/03/15 05:37:39;;;;;;;;;;;;;;;-1.46;100.00;96722.38;5062242;28;19920;-73
2023/03/15 05:40:07;;;;;;;;;;;;;;;-1.41;100.00;96724.19;5057550;28;19963;-71
2023/03/15 05:42:33;;;;;;;;;;;;;;;-1.37;100.00;96735.94;5061005;28;19916;-73
2023/03/15 05:44:58;;;;;;;;;;;;;;;-1.44;100.00;96727.44;5062097;28;20262;-74
2023/03/15 05:47:23;;;;;;;;;;;;;;;-1.49;100.00;96727.53;5056633;28;20070;-74
2023/03/15 05:49:49;;;;;;;;;;;;;;;-1.60;100.00;96742.97;5060417;28;20407;-73
2023/03/15 05:52:14;;;;;;;;;;;;;;;-1.53;100.00;96743.41;5056424;28;19956;-73
2023/03/15 05:54:40;;;;;;;;;;;;;;;-1.66;100.00;96744.88;5061445;28;20327;-74
2023/03/15 05:57:05;;;;;;;;;;;;;;;-1.52;100.00;96746.91;5055968;28;19954;-73
2023/03/15 05:59:31;;;;;;;;;;;;;;;-0.94;100.00;96743.19;5044550;28;20011;-74
2023/03/15 06:01:56;;;;;;;;;;;;;;;-0.28;100.00;96747.53;5061342;28;19932;-76
2023/03/15 06:04:22;;;;;;;;;;;;;;;-0.45;100.00;96748.09;5056250;28;20030;-75
2023/03/15 06:06:47;;;;;;;;;;;;;;;0.01;100.00;96749.19;5061199;28;19920;-74
2023/03/15 06:09:13;;;;;;;;;;;;;;;-0.26;100.00;96748.03;5056923;28;19917;-76
2023/03/15 06:11:38;;;;;;;;;;;;;;;-0.90;100.00;96747.69;5061521;28;20472;-75
2023/03/15 06:14:04;;;;;;;;;;;;;;;-0.81;100.00;96750.50;5055642;28;19916;-70
2023/03/15 06:16:29;;;;;;;;;;;;;;;0.36;100.00;96755.00;5026274;28;19923;-75
2023/03/15 06:18:54;;;;;;;;;;;;;;;1.49;100.00;96758.00;5062069;28;19931;-76
2023/03/15 06:21:19;;;;;;;;;;;;;;;2.48;100.00;96755.22;5056546;28;19924;-76
2023/03/15 06:23:45;;;;;;;;;;;;;;;3.99;100.00;96754.69;5062408;28;19954;-77
2023/03/15 06:26:10;;;;;;;;;;;;;;;5.31;96.26;96760.28;5055138;28;20372;-70
2023/03/15 06:28:35;;;;;;;;;;;;;;;6.63;83.28;96764.16;5061450;28;19917;-75
2023/03/15 06:31:07;;;;;;;;;;;;;;;7.54;71.25;96768.50;5063150;28;20018;-74
2023/03/15 06:33:33;;;;;;;;;;;;;;;8.40;65.59;96767.34;5064289;28;20011;-74
2023/03/15 06:35:58;;;;;;;;;;;;;;;9.12;61.09;96769.13;5049218;28;20395;-75
2023/03/15 06:38:24;;;;;;;;;;;;;;;9.93;56.87;96777.50;5059030;28;20173;-74
2023/03/15 06:40:49;;;;;;;;;;;;;;;10.63;54.97;96777.66;5029649;28;19924;-73
2023/03/15 06:43:18;;;;;;;;;;;;;;;11.48;52.15;96769.94;5058689;28;20373;-76
2023/03/15 06:45:46;;;;;;;;;;;;;;;10.85;50.54;96770.56;5052156;28;20054;-72
2023/03/15 06:48:12;;;;;;;;;;;;;;;9.71;54.32;96770.03;5064611;28;19966;-75
2023/03/15 06:50:38;;;;;;;;;;;;;;;9.99;53.35;96779.94;5060118;28;19935;-74
2023/03/15 06:53:04;;;;;;;;;;;;;;;9.54;55.26;96777.50;5034030;28;19924;-70
2023/03/15 06:55:30;;;;;;;;;;;;;;;10.50;54.01;96775.09;5056775;28;19901;-73
2023/03/15 06:57:55;;;;;;;;;;;;;;;9.82;53.91;96779.22;5050307;28;19921;-72
2023/03/15 07:00:21;;;;;;;;;;;;;;;8.77;60.43;96775.31;5035972;28;20180;-74
2023/03/15 07:02:47;;;;;;;;;;;;;;;6.10;70.87;96776.75;5063984;28;19916;-74
2023/03/15 07:05:12;;;;;;;;;;;;;;;7.22;74.42;96775.72;5071131;28;19942;-71
2023/03/15 07:07:38;;;;;;;;;;;;;;;8.54;62.63;96780.59;5077271;28;20004;-74
2023/03/15 07:10:04;;;;;;;;;;;;;;;9.45;60.41;96782.34;5069000;28;19920;-71
2023/03/15 07:12:29;;;;;;;;;;;;;;;9.97;55.39;96790.47;5083355;28;19916;-73
2023/03/15 07:14:54;;;;;;;;;;;;;;;7.64;59.03;96791.78;5069671;28;19919;-72
2023/03/15 07:17:20;;;;;;;;;;;;;;;8.07;64.07;96792.16;5042472;28;19912;-74
2023/03/15 07:19:45;;;;;;;;;;;;;;;7.70;58.73;96795.84;5079355;28;19956;-75
2023/03/15 07:22:10;;;;;;;;;;;;;;;8.97;60.10;96784.38;5066987;28;20483;-73
2023/03/15 07:24:36;;;;;;;;;;;;;;;11.37;48.72;96795.66;5072752;28;19926;-75
2023/03/15 07:27:01;;;;;;;;;;;;;;;11.16;49.55;96791.41;5055269;28;19924;-74
2023/03/15 07:29:26;;;;;;;;;;;;;;;12.01;46.89;96796.56;5068692;28;19916;-74
2023/03/15 07:31:52;;;;;;;;;;;;;;;11.09;46.33;96800.34;5057905;28;19916;-73
2023/03/15 07:34:17;;;;;;;;;;;;;;;11.69;46.12;96792.59;5068830;28;19917;-73
2023/03/15 07:36:42;;;;;;;;;;;;;;;12.10;43.90;96800.94;5074843;28;19916;-74
2023/03/15 07:39:07;;;;;;;;;;;;;;;13.85;39.69;96801.69;5030376;28;19969;-71
2023/03/15 07:41:35;;;;;;;;;;;;;;;13.57;40.15;96800.34;5070450;28;19943;-71
2023/03/15 07:44:01;;;;;;;;;;;;;;;13.73;40.09;96804.78;5038156;28;19920;-69
2023/03/15 07:46:26;;;;;;;;;;;;;;;13.42;39.30;96798.69;5073512;28;20349;-74
2023/03/15 07:48:52;;;;;;;;;;;;;;;14.41;36.64;96804.28;5078044;28;19916;-74
2023/03/15 07:51:20;;;;;;;;;;;;;;;14.82;35.90;96806.75;5051920;28;20297;-74
2023/03/15 07:53:45;;;;;;;;;;;;;;;14.71;36.29;96817.75;5059254;28;19940;-73
2023/03/15 07:56:11;;;;;;;;;;;;;;;14.44;38.62;96809.00;5052643;28;19995;-74
2023/03/15 07:58:36;;;;;;;;;;;;;;;12.81;41.41;96818.19;5064854;28;19986;-74
2023/03/15 08:01:02;;;;;;;;;;;;;;;13.34;39.94;96814.38;5041061;28;19927;-69
2023/03/15 08:03:27;;;;;;;;;;;;;;;11.94;42.04;96812.13;5056632;28;19980;-73
2023/03/15 08:05:53;;;;;;;;;;;;;;;11.90;43.32;96817.56;5073610;28;19927;-74
2023/03/15 08:08:18;;;;;;;;;;;;;;;11.39;45.21;96812.53;5069959;28;20041;-74
2023/03/15 08:10:44;;;;;;;;;;;;;;;11.52;45.41;96818.59;5075279;28;19967;-74
2023/03/15 08:13:10;;;;;;;;;;;;;;;11.08;44.97;96815.19;5068594;28;20041;-75
2023/03/15 08:15:35;;;;;;;;;;;;;;;11.18;45.15;96812.97;5073148;28;19920;-75
2023/03/15 08:18:00;;;;;;;;;;;;;;;12.08;43.94;96812.31;5052639;28;19939;-74
2023/03/15 08:20:26;;;;;;;;;;;;;;;11.81;44.65;96817.03;5045376;28;20031;-73
2023/03/15 08:22:51;;;;;;;;;;;;;;;12.10;42.82;96812.75;5068763;28;19971;-75
2023/03/15 08:25:19;;;;;;;;;;;;;;;11.19;42.82;96814.56;5062190;28;19924;-71
2023/03/15 08:27:44;;;;;;;;;;;;;;;10.58;44.33;96813.56;5074935;28;19917;-73
2023/03/15 08:30:14;;;;;;;;;;;;;;;10.84;46.12;96815.56;5052826;28;19923;-73
2023/03/15 08:32:40;;;;;;;;;;;;;;;11.15;44.69;96816.47;5055148;28;19926;-72
2023/03/15 08:35:06;;;;;;;;;;;;;;;11.07;45.03;96810.88;5056209;28;20015;-72
2023/03/15 08:37:32;;;;;;;;;;;;;;;11.48;43.57;96818.53;5079532;28;20038;-73
2023/03/15 08:40:03;;;;;;;;;;;;;;;11.48;44.52;96813.84;5081098;28;19917;-72
2023/03/15 08:42:29;;;;;;;;;;;;;;;12.15;41.22;96820.63;5079323;28;19921;-72
2023/03/15 08:44:58;;;;;;;;;;;;;;;11.66;41.51;96814.09;5080735;28;19947;-72
2023/03/15 08:47:24;;;;;;;;;;;;;;;11.27;41.93;96817.06;5077691;28;20225;-72
2023/03/15 08:49:51;;;;;;;;;;;;;;;10.14;42.16;96818.19;5062632;28;19924;-72
2023/03/15 08:52:17;;;;;;;;;;;;;;;10.75;41.79;96823.22;5076579;28;19947;-72
2023/03/15 08:54:42;;;;;;;;;;;;;;;10.42;42.23;96814.44;5082376;28;19916;-74
2023/03/15 08:57:08;;;;;;;;;;;;;;;10.30;43.85;96812.63;5077789;28;19921;-73
2023/03/15 08:59:33;;;;;;;;;;;;;;;11.03;41.12;96814.72;5082421;28;19927;-73
2023/03/15 09:01:59;;;;;;;;;;;;;;;11.39;40.06;96818.78;5083668;28;19916;-73
2023/03/15 09:04:24;;;;;;;;;;;;;;;10.56;41.80;96821.34;5061203;28;19924;-71
2023/03/15 09:06:49;;;;;;;;;;;;;;;10.79;42.56;96826.84;5085928;28;19916;-70
2023/03/15 09:09:16;;;;;;;;;;;;;;;10.15;42.85;96824.44;5063786;28;19920;-71
2023/03/15 09:11:41;;;;;;;;;;;;;;;11.88;39.15;96819.88;5068298;28;19917;-72
2023/03/15 09:14:06;;;;;;;;;;;;;;;11.74;40.18;96815.00;5079829;28;19927;-70
2023/03/15 09:16:32;;;;;;;;;;;;;;;12.08;38.58;96817.78;5086077;28;19917;-72
2023/03/15 09:18:57;;;;;;;;;;;;;;;11.45;39.55;96827.50;5086258;28;19900;-70
2023/03/15 09:21:23;;;;;;;;;;;;;;;10.04;43.31;96823.44;5081210;28;20105;-73
2023/03/15 09:23:49;;;;;;;;;;;;;;;11.34;41.18;96818.31;5085325;28;19908;-71
2023/03/15 09:26:14;;;;;;;;;;;;;;;12.24;40.82;96823.91;5060169;28;19927;-73
2023/03/15 09:28:40;;;;;;;;;;;;;;;12.50;39.34;96811.22;5084464;28;19916;-73
2023/03/15 09:31:05;;;;;;;;;;;;;;;11.80;39.59;96816.25;5078352;28;19948;-72
2023/03/15 09:33:32;;;;;;;;;;;;;;;12.61;38.30;96822.31;5063147;28;19924;-72
2023/03/15 09:35:57;;;;;;;;;;;;;;;11.48;41.19;96829.50;5065866;28;19905;-73
2023/03/15 09:38:22;;;;;;;;;;;;;;;12.09;39.96;96822.13;5059966;28;20364;-74
2023/03/15 09:40:48;;;;;;;;;;;;;;;12.39;38.51;96824.84;5061005;28;20018;-71
2023/03/15 09:43:32;;;;;;;;;;;;;;;11.43;40.76;96830.63;5077408;28;19916;-71
2023/03/15 09:46:16;;;;;;;;;;;;;;;10.79;41.49;96826.84;5064508;28;19936;-74
2023/03/15 09:48:48;;;;;;;;;;;;;;;11.62;41.54;96829.72;5086360;28;19920;-71
2023/03/15 09:51:17;;;;;;;;;;;;;;;12.00;40.76;96829.88;5080383;28;19940;-74
2023/03/15 09:53:49;;;;;;;;;;;;;;;11.71;41.86;96823.97;5084737;28;19920;-70
2023/03/15 09:56:20;;;;;;;;;;;;;;;12.50;40.19;96830.47;5058957;28;19916;-72
2023/03/15 09:58:48;;;;;;;;;;;;;;;13.21;39.51;96826.78;5039436;28;19920;-73
2023/03/15 10:01:15;;;;;;;;;;;;;;;13.34;39.04;96822.63;5066755;28;19920;-75
2023/03/15 10:03:40;;;;;;;;;;;;;;;12.23;40.58;96827.00;5074781;28;19924;-73
2023/03/15 10:06:15;;;;;;;;;;;;;;;13.11;38.52;96833.00;5068860;28;19920;-72
2023/03/15 10:08:40;;;;;;;;;;;;;;;13.32;38.01;96833.19;5057650;28;19920;-75
2023/03/15 10:11:10;;;;;;;;;;;;;;;12.30;39.10;96835.34;5069363;28;20392;-70
2023/03/15 10:13:35;;;;;;;;;;;;;;;12.59;38.65;96839.19;5054937;28;19920;-75
2023/03/15 10:16:16;;;;;;;;;;;;;;;12.00;41.34;96835.34;5058609;28;19966;-72
2023/03/15 10:19:05;;;;;;;;;;;;;;;11.24;41.36;96839.72;5072701;28;19920;-73
2023/03/15 10:21:36;;;;;;;;;;;;;;;12.78;39.70;96829.16;5052062;28;19916;-73
2023/03/15 10:24:03;;;;;;;;;;;;;;;11.91;40.39;96832.09;5039686;28;19916;-72
2023/03/15 10:26:31;;;;;;;;;;;;;;;12.07;40.28;96829.94;5065766;28;19927;-72
2023/03/15 10:28:57;;;;;;;;;;;;;;;12.51;40.52;96825.75;5067038;28;20016;-74
2023/03/15 10:31:30;;;;;;;;;;;;;;;11.74;41.09;96820.50;5040583;28;20588;-73
2023/03/15 10:33:56;;;;;;;;;;;;;;;11.95;39.61;96824.69;5065765;28;19920;-71
2023/03/15 10:36:22;;;;;;;;;;;;;;;12.37;39.08;96818.13;5059036;28;19981;-73
2023/03/15 10:38:49;;;;;;;;;;;;;;;13.23;37.77;96821.69;5064084;28;19916;-75
2023/03/15 10:41:46;;;;;;;;;;;;;;;12.58;38.33;96810.13;5022954;28;19920;-71
2023/03/15 10:44:14;;;;;;;;;;;;;;;12.61;39.12;96817.63;5019518;28;19921;-73
2023/03/15 10:46:40;;;;;;;;;;;;;;;11.84;40.50;96813.53;5053488;28;20015;-73
2023/03/15 10:49:13;;;;;;;;;;;;;;;12.96;39.41;96808.13;5066183;28;20005;-73
2023/03/15 10:51:43;;;;;;;;;;;;;;;12.57;38.77;96821.50;5054660;28;19916;-73
2023/03/15 10:54:16;;;;;;;;;;;;;;;11.75;39.10;96813.81;5044050;28;19943;-72
2023/03/15 10:56:56;;;;;;;;;;;;;;;11.03;42.05;96804.53;5065428;28;19916;-74
2023/03/15 10:59:23;;;;;;;;;;;;;;;10.99;41.26;96802.91;5061111;28;19941;-74
2023/03/15 11:01:53;;;;;;;;;;;;;;;10.82;41.29;96804.19;5052287;28;19921;-74
2023/03/15 11:04:22;;;;;;;;;;;;;;;10.41;43.43;96795.66;5059905;28;19986;-73
2023/03/15 11:06:49;;;;;;;;;;;;;;;11.31;41.63;96792.44;5066079;28;19962;-74
2023/03/15 11:09:21;;;;;;;;;;;;;;;11.26;40.82;96798.25;5053635;28;19927;-71
2023/03/15 11:11:53;;;;;;;;;;;;;;;11.07;40.15;96790.88;5066227;28;19920;-73
2023/03/15 11:14:19;;;;;;;;;;;;;;;10.42;39.47;96798.00;5070090;28;19917;-75
2023/03/15 11:16:50;;;;;;;;;;;;;;;10.93;40.02;96790.66;5054529;28;20527;-72
2023/03/15 11:19:16;;;;;;;;;;;;;;;11.03;41.43;96790.03;5046652;28;20015;-72
2023/03/15 11:21:43;;;;;;;;;;;;;;;11.05;40.54;96790.47;5066271;28;20258;-75
2023/03/15 11:24:23;;;;;;;;;;;;;;;11.07;40.74;96782.66;5063297;28;19920;-73
2023/03/15 11:26:52;;;;;;;;;;;;;;;10.81;40.64;96783.44;5067991;28;19964;-73
2023/03/15 11:29:17;;;;;;;;;;;;;;;10.79;39.19;96786.53;5061458;28;19966;-74
2023/03/15 11:31:43;;;;;;;;;;;;;;;10.39;40.13;96789.72;5080156;28;19916;-74
2023/03/15 11:34:14;;;;;;;;;;;;;;;10.42;39.56;96792.53;5058842;28;19916;-74
2023/03/15 11:36:42;;;;;;;;;;;;;;;10.72;40.41;96783.66;5064093;28;20324;-74
2023/03/15 11:39:11;;;;;;;;;;;;;;;11.03;40.34;96779.88;5040464;28;20399;-72
2023/03/15 11:41:43;;;;;;;;;;;;;;;11.24;38.55;96776.66;5065846;28;19962;-72
2023/03/15 11:44:24;;;;;;;;;;;;;;;10.57;38.28;96776.34;5058336;28;19975;-72
2023/03/15 11:46:53;;;;;;;;;;;;;;;10.63;37.38;96781.16;5058328;28;20443;-73
2023/03/15 11:49:28;;;;;;;;;;;;;;;11.89;37.45;96769.31;5032182;28;19955;-75
2023/03/15 11:51:54;;;;;;;;;;;;;;;11.42;37.46;96765.97;5044861;28;19925;-73
2023/03/15 11:54:20;;;;;;;;;;;;;;;12.09;34.39;96763.69;5059189;28;19916;-74
2023/03/15 11:56:47;;;;;;;;;;;;;;;11.60;35.68;96766.19;5064303;28;19943;-74
2023/03/15 11:59:31;;;;;;;;;;;;;;;12.54;34.30;96754.34;5060055;28;20449;-73
2023/03/15 12:02:08;;;;;;;;;;;;;;;12.37;34.60;96749.47;5065350;28;19917;-74
2023/03/15 12:04:34;;;;;;;;;;;;;;;11.89;34.92;96755.59;5064723;28;19924;-74
2023/03/15 12:07:02;;;;;;;;;;;;;;;12.07;34.34;96747.59;5062672;28;19939;-74
2023/03/15 12:09:30;;;;;;;;;;;;;;;11.52;34.00;96742.56;5046227;28;19920;-75
2023/03/15 12:11:57;;;;;;;;;;;;;;;11.30;36.03;96738.75;5063398;28;20393;-73
2023/03/15 12:14:27;;;;;;;;;;;;;;;11.18;36.74;96736.22;5041246;28;20168;-74
2023/03/15 12:17:13;;;;;;;;;;;;;;;12.23;34.74;96733.66;5062584;28;19993;-74
2023/03/15 12:19:39;;;;;;;;;;;;;;;11.52;35.91;96737.09;5063337;28;19923;-73
2023/03/15 12:22:04;;;;;;;;;;;;;;;11.79;36.25;96728.81;5040843;28;20079;-67
2023/03/15 12:24:35;;;;;;;;;;;;;;;12.18;35.00;96726.53;5063421;28;20370;-72
2023/03/15 12:27:05;;;;;;;;;;;;;;;11.28;36.41;96727.38;5064988;28;19921;-74
2023/03/15 12:29:33;;;;;;;;;;;;;;;10.96;35.87;96729.63;5035298;28;19916;-74
2023/03/15 12:32:06;;;;;;;;;;;;;;;10.53;36.19;96729.72;5068821;28;19955;-70
2023/03/15 12:34:46;;;;;;;;;;;;;;;10.80;36.84;96722.34;5074724;28;19920;-74
2023/03/15 12:37:17;;;;;;;;;;;;;;;11.63;36.18;96727.06;5071011;28;20018;-74
2023/03/15 12:39:44;;;;;;;;;;;;;;;11.47;35.65;96734.69;5055269;28;20309;-73
2023/03/15 12:42:32;;;;;;;;;;;;;;;11.42;35.42;96727.56;5066612;28;19921;-74
2023/03/15 12:45:16;;;;;;;;;;;;;;;10.73;35.66;96730.44;5062983;28;19966;-74